Time;durP1;ratioP1;P1;durP2;ratioP2;P2;SDS_P1;SDS_P2;PMS_P1;PMS_P2;Temp;Humidity;BMP_temperature;BMP_pressure;BME280_temperature;BME280_humidity;BME280_pressure;Samples;Min_cycle;Max_cycle;Signal;HPM_P1;HPM_P2
2022/03/09 00:01:50;;;;;;;0.00;0.00;;;;;;;;;;4916696;29;20211;-73
2022/03/09 00:04:17;;;;;;;0.00;0.00;;;;;;;;;;4916497;29;20230;-72
2022/03/09 00:06:45;;;;;;;0.00;0.00;;;;;;;;;;4916706;29;20201;-72
2022/03/09 00:09:13;;;;;;;0.00;0.00;;;;;;;;;;4921499;29;20221;-72
2022/03/09 00:11:40;;;;;;;7.13;6.63;;;;;;;;;;4921543;29;20237;-73
2022/03/09 00:14:08;;;;;;;0.10;0.10;;;;;;;;;;4919352;29;20206;-74
2022/03/09 00:16:35;;;;;;;3.77;1.13;;;;;;;;;;4921013;29;21687;-72
2022/03/09 00:19:04;;;;;;;0.00;0.00;;;;;;;;;;4924437;29;20219;-75
2022/03/09 00:21:31;;;;;;;14.33;3.40;;;;;;;;;;4918565;29;20206;-72
2022/03/09 00:23:59;;;;;;;0.60;0.60;;;;;;;;;;4914898;29;20235;-71
2022/03/09 00:26:26;;;;;;;0.00;0.00;;;;;;;;;;4917068;29;20210;-73
2022/03/09 00:28:53;;;;;;;0.53;0.23;;;;;;;;;;4919227;29;20666;-74
2022/03/09 00:31:21;;;;;;;0.00;0.00;;;;;;;;;;4922896;29;20544;-72
2022/03/09 00:33:48;;;;;;;0.20;0.20;;;;;;;;;;4921106;29;20207;-73
2022/03/09 00:36:17;;;;;;;0.40;0.40;;;;;;;;;;4921497;29;20303;-72
2022/03/09 00:38:44;;;;;;;0.43;0.43;;;;;;;;;;4923271;29;20208;-72
2022/03/09 00:41:12;;;;;;;0.00;0.00;;;;;;;;;;4919438;29;20203;-72
2022/03/09 00:43:39;;;;;;;0.00;0.00;;;;;;;;;;4922758;29;20224;-72
2022/03/09 00:46:07;;;;;;;0.00;0.00;;;;;;;;;;4920018;29;20199;-73
2022/03/09 00:48:34;;;;;;;0.67;0.67;;;;;;;;;;4922835;29;20232;-72
2022/03/09 00:51:01;;;;;;;0.00;0.00;;;;;;;;;;4923176;29;20206;-72
2022/03/09 00:53:30;;;;;;;0.00;0.00;;;;;;;;;;4918555;29;20219;-73
2022/03/09 00:55:57;;;;;;;0.00;0.00;;;;;;;;;;4924283;29;20675;-72
2022/03/09 00:58:25;;;;;;;0.00;0.00;;;;;;;;;;4920483;29;20961;-73
2022/03/09 01:00:52;;;;;;;0.00;0.00;;;;;;;;;;4925147;29;20220;-72
2022/03/09 01:03:20;;;;;;;0.00;0.00;;;;;;;;;;4921508;29;20200;-73
2022/03/09 01:05:47;;;;;;;4.73;4.53;;;;;;;;;;4920879;29;20203;-75
2022/03/09 01:08:14;;;;;;;0.00;0.00;;;;;;;;;;4920916;29;20689;-72
2022/03/09 01:10:43;;;;;;;0.07;0.07;;;;;;;;;;4923923;29;20207;-73
2022/03/09 01:13:11;;;;;;;1.77;0.67;;;;;;;;;;4920672;29;20203;-73
2022/03/09 01:15:38;;;;;;;0.77;0.77;;;;;;;;;;4922713;29;20710;-73
2022/03/09 01:18:05;;;;;;;0.67;0.67;;;;;;;;;;4923106;29;20340;-73
2022/03/09 01:20:33;;;;;;;2.93;2.73;;;;;;;;;;4923082;29;20208;-74
2022/03/09 01:23:00;;;;;;;0.00;0.00;;;;;;;;;;4925905;29;20196;-73
2022/03/09 01:25:27;;;;;;;0.00;0.00;;;;;;;;;;4926907;29;20227;-72
2022/03/09 01:27:56;;;;;;;0.00;0.00;;;;;;;;;;4924042;29;20572;-74
2022/03/09 01:30:24;;;;;;;0.00;0.00;;;;;;;;;;4926947;29;20211;-73
2022/03/09 01:32:51;;;;;;;5.33;4.90;;;;;;;;;;4923960;29;20597;-76
2022/03/09 01:35:19;;;;;;;0.00;0.00;;;;;;;;;;4927118;29;20203;-73
2022/03/09 01:37:46;;;;;;;0.00;0.00;;;;;;;;;;4925960;29;20698;-76
2022/03/09 01:40:14;;;;;;;0.37;0.37;;;;;;;;;;4926238;29;20652;-73
2022/03/09 01:42:41;;;;;;;0.00;0.00;;;;;;;;;;4924156;29;20208;-73
2022/03/09 01:45:11;;;;;;;0.20;0.20;;;;;;;;;;4924595;29;20239;-73
2022/03/09 01:47:39;;;;;;;0.00;0.00;;;;;;;;;;4926699;29;20204;-73
2022/03/09 01:50:08;;;;;;;0.43;0.37;;;;;;;;;;4924407;29;20261;-74
2022/03/09 01:52:36;;;;;;;0.43;0.43;;;;;;;;;;4925084;29;20287;-72
2022/03/09 01:55:04;;;;;;;0.10;0.10;;;;;;;;;;4923631;29;20212;-73
2022/03/09 01:57:32;;;;;;;0.00;0.00;;;;;;;;;;4922088;29;20211;-73
2022/03/09 02:00:00;;;;;;;0.67;0.27;;;;;;;;;;4922689;29;20206;-73
2022/03/09 02:02:29;;;;;;;0.40;0.40;;;;;;;;;;4925033;29;20587;-76
2022/03/09 02:04:56;;;;;;;0.20;0.20;;;;;;;;;;4926448;29;20692;-73
2022/03/09 02:09:41;;;;;;;0.00;0.00;;;;;;;;;;4924038;29;20204;-74
2022/03/09 02:10:11;;;;;;;0.23;0.23;;;;;;;;;;4923726;29;20286;-75
2022/03/09 02:12:39;;;;;;;0.00;0.00;;;;;;;;;;4925909;29;20212;-73
2022/03/09 02:15:07;;;;;;;0.00;0.00;;;;;;;;;;4924000;29;20207;-75
2022/03/09 02:17:36;;;;;;;0.00;0.00;;;;;;;;;;4925372;29;20665;-74
2022/03/09 02:20:04;;;;;;;0.30;0.30;;;;;;;;;;4922242;29;20685;-73
2022/03/09 02:22:34;;;;;;;0.13;0.13;;;;;;;;;;4924998;29;20215;-73
2022/03/09 02:25:02;;;;;;;0.03;0.03;;;;;;;;;;4924626;29;20235;-73
2022/03/09 02:27:30;;;;;;;1.47;0.77;;;;;;;;;;4926553;29;20216;-75
2022/03/09 02:29:57;;;;;;;0.20;0.20;;;;;;;;;;4924872;29;20199;-75
2022/03/09 02:32:25;;;;;;;0.50;0.50;;;;;;;;;;4920408;29;20227;-73
2022/03/09 02:34:52;;;;;;;0.43;0.43;;;;;;;;;;4925668;29;20670;-74
2022/03/09 02:37:20;;;;;;;0.00;0.00;;;;;;;;;;4924742;29;20214;-74
2022/03/09 02:39:49;;;;;;;0.73;0.73;;;;;;;;;;4927740;29;20286;-73
2022/03/09 02:42:16;;;;;;;2.20;2.10;;;;;;;;;;4923126;29;20341;-73
2022/03/09 02:44:44;;;;;;;2.37;2.27;;;;;;;;;;4925761;29;20760;-73
2022/03/09 02:47:11;;;;;;;0.00;0.00;;;;;;;;;;4925369;29;20199;-73
2022/03/09 02:49:39;;;;;;;2.23;2.13;;;;;;;;;;4918195;29;20228;-73
2022/03/09 02:52:07;;;;;;;0.57;0.57;;;;;;;;;;4925481;29;20215;-76
2022/03/09 02:54:34;;;;;;;0.00;0.00;;;;;;;;;;4926535;29;20200;-74
2022/03/09 02:57:03;;;;;;;0.00;0.00;;;;;;;;;;4923243;29;20207;-74
2022/03/09 02:59:30;;;;;;;0.30;0.30;;;;;;;;;;4924181;29;20200;-74
2022/03/09 03:01:57;;;;;;;0.07;0.07;;;;;;;;;;4922392;29;20208;-74
2022/03/09 03:04:25;;;;;;;0.70;0.60;;;;;;;;;;4924790;29;20228;-74
2022/03/09 03:06:52;;;;;;;4.00;3.70;;;;;;;;;;4923184;29;21810;-74
2022/03/09 03:09:19;;;;;;;0.77;0.40;;;;;;;;;;4926040;29;20219;-76
2022/03/09 03:11:47;;;;;;;0.07;0.07;;;;;;;;;;4923155;29;20223;-75
2022/03/09 03:14:16;;;;;;;0.37;0.33;;;;;;;;;;4924111;29;20214;-74
2022/03/09 03:16:43;;;;;;;2.37;1.23;;;;;;;;;;4919132;29;20205;-75
2022/03/09 03:19:10;;;;;;;13.67;3.23;;;;;;;;;;4923567;29;20212;-75
2022/03/09 03:21:38;;;;;;;0.30;0.30;;;;;;;;;;4921322;29;21335;-73
2022/03/09 03:24:05;;;;;;;0.63;0.50;;;;;;;;;;4915921;29;20200;-75
2022/03/09 03:26:33;;;;;;;2.37;1.17;;;;;;;;;;4916742;29;20677;-74
2022/03/09 03:29:00;;;;;;;0.03;0.03;;;;;;;;;;4916339;29;20596;-74
2022/03/09 03:31:30;;;;;;;0.80;0.80;;;;;;;;;;4926497;29;21019;-74
2022/03/09 03:33:57;;;;;;;0.00;0.00;;;;;;;;;;4934524;29;20214;-74
2022/03/09 03:36:25;;;;;;;0.00;0.00;;;;;;;;;;4924532;29;20794;-74
2022/03/09 03:38:53;;;;;;;0.10;0.10;;;;;;;;;;4914673;29;20212;-73
2022/03/09 03:41:20;;;;;;;0.80;0.80;;;;;;;;;;4918543;29;20216;-74
2022/03/09 03:43:47;;;;;;;0.53;0.20;;;;;;;;;;4918863;29;20207;-77
2022/03/09 03:46:15;;;;;;;0.40;0.40;;;;;;;;;;4915321;29;20240;-74
2022/03/09 03:48:43;;;;;;;0.00;0.00;;;;;;;;;;4915479;29;20259;-74
2022/03/09 03:51:11;;;;;;;1.03;1.03;;;;;;;;;;4918413;29;20212;-74
2022/03/09 03:53:38;;;;;;;0.87;0.60;;;;;;;;;;4916530;29;20215;-74
2022/03/09 03:56:06;;;;;;;0.97;0.90;;;;;;;;;;4923509;29;20210;-74
2022/03/09 03:58:34;;;;;;;0.00;0.00;;;;;;;;;;4923067;29;20204;-73
2022/03/09 04:01:01;;;;;;;0.00;0.00;;;;;;;;;;4922629;29;20199;-74
2022/03/09 04:03:28;;;;;;;0.30;0.30;;;;;;;;;;4923178;29;20821;-74
2022/03/09 04:05:57;;;;;;;0.00;0.00;;;;;;;;;;4921327;29;20598;-73
2022/03/09 04:08:25;;;;;;;0.00;0.00;;;;;;;;;;4925010;29;20220;-73
2022/03/09 04:10:52;;;;;;;0.00;0.00;;;;;;;;;;4914391;29;20582;-74
2022/03/09 04:13:19;;;;;;;0.00;0.00;;;;;;;;;;4914210;29;20201;-73
2022/03/09 04:15:47;;;;;;;0.00;0.00;;;;;;;;;;4916596;29;20219;-74
2022/03/09 04:18:14;;;;;;;0.57;0.57;;;;;;;;;;4918591;29;20200;-74
2022/03/09 04:20:41;;;;;;;1.50;1.03;;;;;;;;;;4918438;29;20203;-73
2022/03/09 04:23:10;;;;;;;0.00;0.00;;;;;;;;;;4916007;29;20215;-74
2022/03/09 04:25:37;;;;;;;0.00;0.00;;;;;;;;;;4914518;29;20772;-73
2022/03/09 04:28:05;;;;;;;0.00;0.00;;;;;;;;;;4927998;29;20204;-74
2022/03/09 04:30:32;;;;;;;0.40;0.40;;;;;;;;;;4917185;29;20208;-73
2022/03/09 04:33:00;;;;;;;0.00;0.00;;;;;;;;;;4917247;29;20328;-73
2022/03/09 04:35:27;;;;;;;0.00;0.00;;;;;;;;;;4915734;29;20219;-75
2022/03/09 04:37:55;;;;;;;0.30;0.30;;;;;;;;;;4915992;29;20208;-73
2022/03/09 04:40:24;;;;;;;0.00;0.00;;;;;;;;;;4918323;29;20207;-73
2022/03/09 04:42:51;;;;;;;0.00;0.00;;;;;;;;;;4918539;29;20780;-75
2022/03/09 04:45:18;;;;;;;0.57;0.30;;;;;;;;;;4917478;29;20230;-74
2022/03/09 04:47:45;;;;;;;0.53;0.53;;;;;;;;;;4914311;29;20207;-74
2022/03/09 04:50:13;;;;;;;0.30;0.30;;;;;;;;;;4917657;29;20219;-73
2022/03/09 04:52:40;;;;;;;0.13;0.13;;;;;;;;;;4917424;29;20204;-73
2022/03/09 04:55:08;;;;;;;0.00;0.00;;;;;;;;;;4918066;29;20211;-73
2022/03/09 04:57:39;;;;;;;0.00;0.00;;;;;;;;;;4925908;29;20562;-73
2022/03/09 05:00:06;;;;;;;0.07;0.07;;;;;;;;;;4919274;29;20208;-75
2022/03/09 05:02:34;;;;;;;0.00;0.00;;;;;;;;;;4919986;29;20212;-73
2022/03/09 05:05:01;;;;;;;0.00;0.00;;;;;;;;;;4920802;29;20242;-73
2022/03/09 05:07:29;;;;;;;0.00;0.00;;;;;;;;;;4923881;29;20218;-72
2022/03/09 05:09:56;;;;;;;0.00;0.00;;;;;;;;;;4928076;29;20196;-72
2022/03/09 05:12:23;;;;;;;0.13;0.13;;;;;;;;;;4926559;29;21568;-72
2022/03/09 05:14:52;;;;;;;1.40;1.40;;;;;;;;;;4922574;29;20204;-72
2022/03/09 05:17:20;;;;;;;0.63;0.63;;;;;;;;;;4923817;29;20208;-72
2022/03/09 05:19:47;;;;;;;0.73;0.73;;;;;;;;;;4925058;29;20676;-72
2022/03/09 05:22:14;;;;;;;0.00;0.00;;;;;;;;;;4923421;29;20211;-72
2022/03/09 05:24:42;;;;;;;0.10;0.10;;;;;;;;;;4926850;29;20661;-73
2022/03/09 05:27:09;;;;;;;0.00;0.00;;;;;;;;;;4925518;29;20211;-74
2022/03/09 05:29:37;;;;;;;3.73;1.80;;;;;;;;;;4925949;29;20985;-71
2022/03/09 05:32:06;;;;;;;1.47;0.77;;;;;;;;;;4923322;29;20223;-72
2022/03/09 05:34:34;;;;;;;0.10;0.10;;;;;;;;;;4922372;29;20200;-73
2022/03/09 05:37:01;;;;;;;1.30;1.30;;;;;;;;;;4924212;29;20202;-73
2022/03/09 05:39:28;;;;;;;0.10;0.10;;;;;;;;;;4927531;29;20622;-74
2022/03/09 05:41:56;;;;;;;0.00;0.00;;;;;;;;;;4923105;29;20208;-72
2022/03/09 05:44:23;;;;;;;0.43;0.43;;;;;;;;;;4929835;29;20192;-72
2022/03/09 05:46:51;;;;;;;0.43;0.43;;;;;;;;;;4920960;29;20234;-74
2022/03/09 05:49:20;;;;;;;0.00;0.00;;;;;;;;;;4925631;29;20232;-72
2022/03/09 05:51:48;;;;;;;0.00;0.00;;;;;;;;;;4921550;29;20204;-73
2022/03/09 05:54:15;;;;;;;0.93;0.90;;;;;;;;;;4925687;29;21451;-72
2022/03/09 05:56:42;;;;;;;0.00;0.00;;;;;;;;;;4922640;29;20215;-72
2022/03/09 05:59:11;;;;;;;0.10;0.10;;;;;;;;;;4925659;29;20572;-73
2022/03/09 06:01:38;;;;;;;0.03;0.03;;;;;;;;;;4927266;29;20287;-72
2022/03/09 06:04:06;;;;;;;0.00;0.00;;;;;;;;;;4924449;29;20246;-74
2022/03/09 06:06:35;;;;;;;0.40;0.40;;;;;;;;;;4919865;29;20307;-74
2022/03/09 06:09:02;;;;;;;0.10;0.10;;;;;;;;;;4932416;29;20211;-74
2022/03/09 06:11:29;;;;;;;0.00;0.00;;;;;;;;;;4925968;29;20227;-76
2022/03/09 06:13:57;;;;;;;0.00;0.00;;;;;;;;;;4924365;29;20200;-73
2022/03/09 06:16:24;;;;;;;0.10;0.10;;;;;;;;;;4922781;29;20212;-75
2022/03/09 06:18:51;;;;;;;0.00;0.00;;;;;;;;;;4922133;29;20210;-73
2022/03/09 06:21:19;;;;;;;0.00;0.00;;;;;;;;;;4924255;29;20204;-76
2022/03/09 06:23:47;;;;;;;0.20;0.20;;;;;;;;;;4920891;29;20206;-76
2022/03/09 06:26:15;;;;;;;0.00;0.00;;;;;;;;;;4918446;29;20238;-74
2022/03/09 06:28:42;;;;;;;0.00;0.00;;;;;;;;;;4915454;29;20223;-73
2022/03/09 06:31:09;;;;;;;0.00;0.00;;;;;;;;;;4920941;29;20976;-72
2022/03/09 06:33:37;;;;;;;0.00;0.00;;;;;;;;;;4921198;29;20204;-71
2022/03/09 06:36:06;;;;;;;0.00;0.00;;;;;;;;;;4923567;29;20200;-74
2022/03/09 06:38:33;;;;;;;0.00;0.00;;;;;;;;;;4925835;29;20207;-74
2022/03/09 06:41:02;;;;;;;0.00;0.00;;;;;;;;;;4925314;29;20201;-73
2022/03/09 06:43:30;;;;;;;0.00;0.00;;;;;;;;;;4921808;29;20204;-72
2022/03/09 06:45:57;;;;;;;0.00;0.00;;;;;;;;;;4922792;29;20223;-72
2022/03/09 06:48:24;;;;;;;0.00;0.00;;;;;;;;;;4924644;29;20247;-75
2022/03/09 06:50:52;;;;;;;0.00;0.00;;;;;;;;;;4924875;29;20690;-74
2022/03/09 06:53:19;;;;;;;0.00;0.00;;;;;;;;;;4923835;29;20256;-73
2022/03/09 06:55:46;;;;;;;0.00;0.00;;;;;;;;;;4925485;29;20212;-73
2022/03/09 06:58:15;;;;;;;0.00;0.00;;;;;;;;;;4925503;29;20246;-72
2022/03/09 07:00:43;;;;;;;0.00;0.00;;;;;;;;;;4924077;29;20196;-73
2022/03/09 07:03:10;;;;;;;0.00;0.00;;;;;;;;;;4922084;29;20208;-73
2022/03/09 07:05:37;;;;;;;0.87;0.87;;;;;;;;;;4921888;29;20229;-73
2022/03/09 07:08:05;;;;;;;0.00;0.00;;;;;;;;;;4922060;29;20204;-75
2022/03/09 07:10:32;;;;;;;0.07;0.07;;;;;;;;;;4922342;29;20214;-75
2022/03/09 07:13:00;;;;;;;0.00;0.00;;;;;;;;;;4922947;29;20223;-74
2022/03/09 07:15:29;;;;;;;0.00;0.00;;;;;;;;;;4920257;29;20212;-73
2022/03/09 07:17:56;;;;;;;0.00;0.00;;;;;;;;;;4922077;29;20668;-72
2022/03/09 07:20:23;;;;;;;0.03;0.03;;;;;;;;;;4922789;29;20209;-73
2022/03/09 07:22:51;;;;;;;0.00;0.00;;;;;;;;;;4920734;29;20200;-72
2022/03/09 07:25:19;;;;;;;0.00;0.00;;;;;;;;;;4924990;29;20212;-73
2022/03/09 07:27:46;;;;;;;0.00;0.00;;;;;;;;;;4924041;29;20227;-73
2022/03/09 07:30:14;;;;;;;0.57;0.20;;;;;;;;;;4925800;29;20266;-72
2022/03/09 07:32:42;;;;;;;0.00;0.00;;;;;;;;;;4925469;29;20736;-72
2022/03/09 07:35:11;;;;;;;0.70;0.70;;;;;;;;;;4924703;29;20212;-73
2022/03/09 07:37:38;;;;;;;1.23;0.87;;;;;;;;;;4922422;29;20263;-72
2022/03/09 07:40:06;;;;;;;0.33;0.33;;;;;;;;;;4922345;29;20287;-72
2022/03/09 07:42:34;;;;;;;0.10;0.10;;;;;;;;;;4923050;29;20282;-71
2022/03/09 07:45:03;;;;;;;0.40;0.30;;;;;;;;;;4923297;29;20230;-71
2022/03/09 07:47:30;;;;;;;0.40;0.40;;;;;;;;;;4921915;29;20279;-73
2022/03/09 07:49:59;;;;;;;0.13;0.13;;;;;;;;;;4922091;29;20359;-71
2022/03/09 07:52:26;;;;;;;0.97;0.90;;;;;;;;;;4919322;29;20205;-75
2022/03/09 07:54:54;;;;;;;5.30;1.17;;;;;;;;;;4922785;29;20212;-70
2022/03/09 07:57:21;;;;;;;0.07;0.07;;;;;;;;;;4922474;29;20239;-72
2022/03/09 07:59:49;;;;;;;0.00;0.00;;;;;;;;;;4922275;29;20703;-73
2022/03/09 08:02:16;;;;;;;0.00;0.00;;;;;;;;;;4920902;29;20208;-72
2022/03/09 08:04:43;;;;;;;0.10;0.10;;;;;;;;;;4924139;29;20689;-71
2022/03/09 08:07:12;;;;;;;1.47;1.43;;;;;;;;;;4923652;29;20235;-74
2022/03/09 08:09:39;;;;;;;2.43;0.67;;;;;;;;;;4922557;29;20274;-77
2022/03/09 08:12:09;;;;;;;0.00;0.00;;;;;;;;;;4921309;29;20306;-73
2022/03/09 08:14:36;;;;;;;0.07;0.07;;;;;;;;;;4922063;29;20302;-73
2022/03/09 08:17:04;;;;;;;0.00;0.00;;;;;;;;;;4922404;29;20204;-80
2022/03/09 08:19:31;;;;;;;0.57;0.57;;;;;;;;;;4923986;29;20207;-73
2022/03/09 08:21:59;;;;;;;5.43;3.53;;;;;;;;;;4920237;29;20216;-75
2022/03/09 08:24:28;;;;;;;0.00;0.00;;;;;;;;;;4923671;29;20251;-76
2022/03/09 08:26:55;;;;;;;0.20;0.20;;;;;;;;;;4922223;29;20234;-73
2022/03/09 08:29:23;;;;;;;3.13;1.77;;;;;;;;;;4927405;29;20207;-73
2022/03/09 08:31:51;;;;;;;1.60;1.33;;;;;;;;;;4928241;29;20216;-73
2022/03/09 08:34:19;;;;;;;0.17;0.17;;;;;;;;;;4929509;29;20583;-75
2022/03/09 08:36:46;;;;;;;8.20;2.80;;;;;;;;;;4929321;29;20211;-77
2022/03/09 08:39:13;;;;;;;0.77;0.73;;;;;;;;;;4929148;29;20219;-76
2022/03/09 08:41:44;;;;;;;0.73;0.63;;;;;;;;;;4926705;29;20223;-78
2022/03/09 08:44:11;;;;;;;0.20;0.20;;;;;;;;;;4925221;29;20222;-72
2022/03/09 08:46:39;;;;;;;6.57;2.97;;;;;;;;;;4925789;29;20231;-72
2022/03/09 08:49:06;;;;;;;0.30;0.30;;;;;;;;;;4926504;29;20245;-74
2022/03/09 08:51:33;;;;;;;0.10;0.10;;;;;;;;;;4926731;29;20691;-70
2022/03/09 08:54:01;;;;;;;3.53;2.30;;;;;;;;;;4928766;29;20212;-72
2022/03/09 08:56:28;;;;;;;3.13;2.33;;;;;;;;;;4930223;29;20527;-74
2022/03/09 08:58:57;;;;;;;0.97;0.97;;;;;;;;;;4925668;29;20638;-72
2022/03/09 09:01:25;;;;;;;0.93;0.93;;;;;;;;;;4926263;29;20207;-72
2022/03/09 09:03:52;;;;;;;0.93;0.80;;;;;;;;;;4928124;29;20208;-72
2022/03/09 09:06:19;;;;;;;0.97;0.97;;;;;;;;;;4924931;29;20227;-72
2022/03/09 09:08:47;;;;;;;1.77;1.57;;;;;;;;;;4924664;29;20224;-75
2022/03/09 09:11:14;;;;;;;1.33;1.27;;;;;;;;;;4926468;29;20207;-76
2022/03/09 09:13:42;;;;;;;3.30;1.83;;;;;;;;;;4926796;29;20223;-72
2022/03/09 09:16:11;;;;;;;2.10;1.40;;;;;;;;;;4928591;29;20208;-72
2022/03/09 09:18:38;;;;;;;0.00;0.00;;;;;;;;;;4928904;29;20579;-72
2022/03/09 09:21:06;;;;;;;1.70;1.40;;;;;;;;;;4927582;29;20623;-72
2022/03/09 09:23:33;;;;;;;0.90;0.87;;;;;;;;;;4929742;29;20216;-73
2022/03/09 09:26:01;;;;;;;0.83;0.83;;;;;;;;;;4953559;23;20208;-69
2022/03/09 09:28:28;;;;;;;0.30;0.30;;;;;;;;;;4932154;29;20219;-77
2022/03/09 09:30:55;;;;;;;1.40;0.93;;;;;;;;;;4925405;29;20222;-73
2022/03/09 09:33:24;;;;;;;2.00;1.23;;;;;;;;;;4925635;29;20235;-71
2022/03/09 09:35:51;;;;;;;2.27;1.53;;;;;;;;;;4925578;29;20197;-71
2022/03/09 09:38:20;;;;;;;3.33;1.97;;;;;;;;;;4925787;29;20726;-74
2022/03/09 09:40:47;;;;;;;2.37;1.07;;;;;;;;;;4922002;29;20204;-74
2022/03/09 09:43:17;;;;;;;1.00;0.73;;;;;;;;;;4923752;29;20299;-71
2022/03/09 09:45:45;;;;;;;1.33;1.03;;;;;;;;;;4923630;29;20214;-74
2022/03/09 09:48:14;;;;;;;31.30;10.80;;;;;;;;;;4923727;29;20321;-77
2022/03/09 09:50:43;;;;;;;1.17;1.10;;;;;;;;;;4925323;29;20736;-72
2022/03/09 09:53:12;;;;;;;0.40;0.40;;;;;;;;;;4926760;29;20212;-74
2022/03/09 09:55:41;;;;;;;1.20;1.20;;;;;;;;;;4927052;29;20708;-75
2022/03/09 09:58:09;;;;;;;2.63;1.10;;;;;;;;;;4925508;29;20223;-73
2022/03/09 10:00:36;;;;;;;0.27;0.27;;;;;;;;;;4926405;29;20216;-71
2022/03/09 10:03:04;;;;;;;0.67;0.37;;;;;;;;;;4926093;29;20216;-74
2022/03/09 10:05:32;;;;;;;0.57;0.33;;;;;;;;;;4924362;29;20200;-73
2022/03/09 10:08:13;;;;;;;3.30;1.90;;;;;;;;;;4924243;29;20646;-74
2022/03/09 10:10:41;;;;;;;0.47;0.47;;;;;;;;;;4922183;29;20200;-69
2022/03/09 10:13:15;;;;;;;2.13;1.97;;;;;;;;;;4925081;29;20207;-72
2022/03/09 10:15:43;;;;;;;1.93;1.83;;;;;;;;;;4923501;29;20208;-75
2022/03/09 10:18:18;;;;;;;0.53;0.53;;;;;;;;;;4925758;29;20691;-72
2022/03/09 10:20:46;;;;;;;2.10;1.93;;;;;;;;;;4922675;29;20648;-75
2022/03/09 10:23:15;;;;;;;2.07;1.57;;;;;;;;;;4924016;29;20302;-77
2022/03/09 10:25:43;;;;;;;1.47;0.97;;;;;;;;;;4922784;29;20567;-73
2022/03/09 10:28:11;;;;;;;1.47;1.20;;;;;;;;;;4921543;29;20236;-77
2022/03/09 10:30:39;;;;;;;0.13;0.13;;;;;;;;;;4922801;29;20204;-76
2022/03/09 10:33:08;;;;;;;0.50;0.50;;;;;;;;;;4923568;29;20212;-75
2022/03/09 10:35:43;;;;;;;0.70;0.70;;;;;;;;;;4923305;29;20228;-77
2022/03/09 10:38:27;;;;;;;5.50;2.63;;;;;;;;;;4923093;29;20208;-74
2022/03/09 10:40:56;;;;;;;4.33;2.43;;;;;;;;;;4924215;29;20206;-76
2022/03/09 10:43:25;;;;;;;1.10;1.00;;;;;;;;;;4924338;29;20208;-77
2022/03/09 10:45:57;;;;;;;1.23;0.30;;;;;;;;;;4920595;29;20216;-75
2022/03/09 10:48:25;;;;;;;0.47;0.47;;;;;;;;;;4922214;29;20228;-77
2022/03/09 10:50:52;;;;;;;0.97;0.77;;;;;;;;;;4921413;29;20207;-75
2022/03/09 10:53:20;;;;;;;0.30;0.30;;;;;;;;;;4923194;29;20349;-75
2022/03/09 10:55:47;;;;;;;1.40;1.30;;;;;;;;;;4923109;29;20557;-75
2022/03/09 10:58:17;;;;;;;0.37;0.37;;;;;;;;;;4922346;29;20204;-75
2022/03/09 11:00:45;;;;;;;5.63;3.13;;;;;;;;;;4920218;29;20200;-76
2022/03/09 11:03:14;;;;;;;1.23;1.10;;;;;;;;;;4924181;29;20310;-75
2022/03/09 11:05:55;;;;;;;1.43;1.13;;;;;;;;;;4919619;29;20204;-76
2022/03/09 11:08:23;;;;;;;0.00;0.00;;;;;;;;;;4919615;29;20238;-74
2022/03/09 11:10:52;;;;;;;0.33;0.33;;;;;;;;;;4920023;29;20208;-76
2022/03/09 11:13:21;;;;;;;3.07;1.40;;;;;;;;;;4921748;29;20215;-74
2022/03/09 11:15:49;;;;;;;1.70;1.60;;;;;;;;;;4920902;29;20608;-74
2022/03/09 11:18:19;;;;;;;7.93;2.80;;;;;;;;;;4919419;29;20211;-74
2022/03/09 11:20:47;;;;;;;7.83;3.07;;;;;;;;;;4919901;29;20824;-74
2022/03/09 11:23:15;;;;;;;6.77;6.10;;;;;;;;;;4921058;29;20595;-81
2022/03/09 11:25:44;;;;;;;0.93;0.93;;;;;;;;;;4919385;29;20204;-77
2022/03/09 11:28:12;;;;;;;2.33;2.00;;;;;;;;;;4921144;29;20250;-76
2022/03/09 11:30:54;;;;;;;8.50;1.50;;;;;;;;;;4919289;29;20219;-76
2022/03/09 11:33:37;;;;;;;2.43;1.30;;;;;;;;;;4920240;29;20215;-81
2022/03/09 11:36:04;;;;;;;0.20;0.10;;;;;;;;;;4918946;29;20212;-81
2022/03/09 11:38:41;;;;;;;0.20;0.20;;;;;;;;;;4919771;29;20511;-78
2022/03/09 11:41:19;;;;;;;0.93;0.93;;;;;;;;;;4920934;29;20203;-74
2022/03/09 11:43:47;;;;;;;12.37;4.93;;;;;;;;;;4920616;29;20223;-78
2022/03/09 11:46:17;;;;;;;1.73;1.53;;;;;;;;;;4920436;29;20215;-75
2022/03/09 11:48:51;;;;;;;2.80;2.53;;;;;;;;;;4920256;29;20247;-76
2022/03/09 11:51:19;;;;;;;3.07;2.10;;;;;;;;;;4919014;29;20203;-76
2022/03/09 11:53:48;;;;;;;0.83;0.70;;;;;;;;;;4920778;29;20219;-79
2022/03/09 11:56:41;;;;;;;1.80;1.50;;;;;;;;;;4920370;29;20212;-78
2022/03/09 11:59:13;;;;;;;0.47;0.47;;;;;;;;;;4918371;29;20211;-74
2022/03/09 12:01:59;;;;;;;13.23;3.70;;;;;;;;;;4922316;29;20700;-75
2022/03/09 12:04:42;;;;;;;3.83;1.40;;;;;;;;;;4921293;29;20219;-75
2022/03/09 12:07:11;;;;;;;1.03;0.97;;;;;;;;;;4918722;29;20262;-76
2022/03/09 12:09:58;;;;;;;1.27;0.83;;;;;;;;;;4921673;29;20934;-72
2022/03/09 12:12:26;;;;;;;3.23;1.47;;;;;;;;;;4920233;29;20286;-74
2022/03/09 12:15:03;;;;;;;2.10;1.83;;;;;;;;;;4920385;29;20560;-78
2022/03/09 12:17:31;;;;;;;0.40;0.40;;;;;;;;;;4918975;29;21140;-76
2022/03/09 12:20:16;;;;;;;2.73;2.63;;;;;;;;;;4918391;29;20203;-77
2022/03/09 12:22:59;;;;;;;0.00;0.00;;;;;;;;;;4920499;29;20211;-84
2022/03/09 12:25:41;;;;;;;3.28;2.53;;;;;;;;;;4920532;29;20203;-81
2022/03/09 12:28:28;;;;;;;3.17;1.20;;;;;;;;;;4919659;29;20240;-79
2022/03/09 12:30:56;;;;;;;4.13;1.90;;;;;;;;;;4911524;29;20340;-80
2022/03/09 12:33:25;;;;;;;0.73;0.73;;;;;;;;;;4920923;29;20211;-75
2022/03/09 12:35:52;;;;;;;0.20;0.20;;;;;;;;;;4919047;29;20207;-74
2022/03/09 12:38:21;;;;;;;0.38;0.32;;;;;;;;;;4918247;29;20223;-77
2022/03/09 12:40:50;;;;;;;1.15;0.77;;;;;;;;;;4920598;29;20692;-75
2022/03/09 12:43:18;;;;;;;0.28;0.28;;;;;;;;;;4920590;29;20207;-75
2022/03/09 12:45:52;;;;;;;0.52;0.52;;;;;;;;;;4919970;29;20302;-74
2022/03/09 12:48:19;;;;;;;0.55;0.55;;;;;;;;;;4918499;29;20542;-74
2022/03/09 12:50:47;;;;;;;0.70;0.70;;;;;;;;;;4920141;29;20326;-77
2022/03/09 12:53:20;;;;;;;0.10;0.10;;;;;;;;;;4920209;29;22396;-75
2022/03/09 12:55:48;;;;;;;4.75;0.88;;;;;;;;;;4918278;29;20208;-73
2022/03/09 12:58:23;;;;;;;6.63;3.05;;;;;;;;;;4921724;29;20227;-73
2022/03/09 13:01:00;;;;;;;0.95;0.95;;;;;;;;;;4919977;29;20207;-74
2022/03/09 13:03:28;;;;;;;2.75;1.00;;;;;;;;;;4925027;29;20653;-74
2022/03/09 13:05:56;;;;;;;0.57;0.57;;;;;;;;;;4919098;29;20212;-75
2022/03/09 13:08:23;;;;;;;6.32;4.22;;;;;;;;;;4925288;29;20986;-74
2022/03/09 13:10:52;;;;;;;2.78;2.05;;;;;;;;;;4931406;29;20215;-73
2022/03/09 13:13:19;;;;;;;1.85;1.08;;;;;;;;;;4932345;29;20208;-74
2022/03/09 13:15:51;;;;;;;1.02;1.00;;;;;;;;;;4933905;29;20208;-74
2022/03/09 13:18:27;;;;;;;3.40;1.65;;;;;;;;;;4932072;29;20231;-74
2022/03/09 13:20:55;;;;;;;0.32;0.32;;;;;;;;;;4933294;29;20207;-74
2022/03/09 13:23:26;;;;;;;0.65;0.63;;;;;;;;;;4927649;29;20558;-75
2022/03/09 13:25:54;;;;;;;0.40;0.40;;;;;;;;;;4932704;29;20207;-73
2022/03/09 13:28:28;;;;;;;0.00;0.00;;;;;;;;;;4934109;29;20246;-74
2022/03/09 13:30:57;;;;;;;1.65;0.98;;;;;;;;;;4932560;29;20607;-74
2022/03/09 13:33:25;;;;;;;2.13;1.92;;;;;;;;;;4934220;29;20214;-72
2022/03/09 13:35:53;;;;;;;1.73;1.20;;;;;;;;;;4932435;29;20214;-74
2022/03/09 13:38:21;;;;;;;2.72;0.88;;;;;;;;;;4931865;29;20635;-75
2022/03/09 13:40:49;;;;;;;0.03;0.03;;;;;;;;;;4934856;29;20294;-76
2022/03/09 13:43:16;;;;;;;0.17;0.17;;;;;;;;;;4932222;29;20215;-76
2022/03/09 13:45:43;;;;;;;0.15;0.15;;;;;;;;;;4930509;29;20205;-75
2022/03/09 13:48:22;;;;;;;1.77;0.73;;;;;;;;;;4930479;29;20666;-75
2022/03/09 13:50:59;;;;;;;3.10;0.95;;;;;;;;;;4932176;29;20583;-75
2022/03/09 13:53:32;;;;;;;0.98;0.98;;;;;;;;;;4928727;29;20286;-75
2022/03/09 13:56:00;;;;;;;1.55;1.10;;;;;;;;;;4929030;29;20255;-75
2022/03/09 13:58:28;;;;;;;0.45;0.45;;;;;;;;;;4934388;29;20641;-75
2022/03/09 14:01:06;;;;;;;0.43;0.43;;;;;;;;;;4933521;29;22700;-75
2022/03/09 14:03:41;;;;;;;0.38;0.22;;;;;;;;;;4928896;29;20570;-73
2022/03/09 14:06:16;;;;;;;0.75;0.75;;;;;;;;;;4933698;29;20732;-74
2022/03/09 14:08:44;;;;;;;0.88;0.85;;;;;;;;;;4927753;29;20282;-75
2022/03/09 14:11:14;;;;;;;3.40;0.75;;;;;;;;;;4932996;29;20204;-72
2022/03/09 14:14:01;;;;;;;4.20;2.42;;;;;;;;;;4933333;29;20226;-74
2022/03/09 14:16:29;;;;;;;1.95;0.88;;;;;;;;;;4933564;29;20199;-75
2022/03/09 14:18:58;;;;;;;4.32;2.05;;;;;;;;;;4934319;29;20212;-75
2022/03/09 14:21:27;;;;;;;0.15;0.15;;;;;;;;;;4929066;29;20208;-76
2022/03/09 14:23:57;;;;;;;0.00;0.00;;;;;;;;;;4929724;29;20246;-71
2022/03/09 14:26:26;;;;;;;0.00;0.00;;;;;;;;;;4925888;29;20656;-74
2022/03/09 14:28:54;;;;;;;2.88;2.20;;;;;;;;;;4931915;29;20256;-74
2022/03/09 14:31:23;;;;;;;0.98;0.98;;;;;;;;;;4929284;29;20208;-72
2022/03/09 14:33:51;;;;;;;0.95;0.95;;;;;;;;;;4931263;29;20259;-73
2022/03/09 14:36:20;;;;;;;1.08;0.85;;;;;;;;;;4932090;29;20211;-73
2022/03/09 14:38:47;;;;;;;0.85;0.30;;;;;;;;;;4934267;29;20246;-72
2022/03/09 14:41:15;;;;;;;0.70;0.35;;;;;;;;;;4932247;29;20579;-72
2022/03/09 14:43:44;;;;;;;0.68;0.47;;;;;;;;;;4934305;29;20200;-72
2022/03/09 14:46:11;;;;;;;0.38;0.25;;;;;;;;;;4934639;29;20199;-73
2022/03/09 14:48:39;;;;;;;1.98;1.50;;;;;;;;;;4934047;29;20231;-73
2022/03/09 14:51:06;;;;;;;0.32;0.32;;;;;;;;;;4932924;29;20588;-74
2022/03/09 14:53:36;;;;;;;1.38;1.33;;;;;;;;;;4933542;29;20200;-72